sensor_id;sensor_type;location;lat;lon;timestamp;pressure;altitude;pressure_sealevel;temperature;humidity
59493;BME280;45497;43.996;22.876;2022-07-26T00:01:17;100599.06;;;27.70;39.27
59493;BME280;45497;43.996;22.876;2022-07-26T00:03:43;100601.25;;;27.68;39.37
59493;BME280;45497;43.996;22.876;2022-07-26T00:06:09;100604.31;;;27.61;39.66
59493;BME280;45497;43.996;22.876;2022-07-26T00:08:34;100605.47;;;27.55;39.44
59493;BME280;45497;43.996;22.876;2022-07-26T00:11:00;100604.41;;;27.51;39.57
59493;BME280;45497;43.996;22.876;2022-07-26T00:15:52;100600.59;;;27.52;39.55
59493;BME280;45497;43.996;22.876;2022-07-26T00:18:18;100603.31;;;27.52;39.88
59493;BME280;45497;43.996;22.876;2022-07-26T00:20:44;100599.25;;;27.50;39.76
59493;BME280;45497;43.996;22.876;2022-07-26T00:24:12;100605.28;;;27.46;39.94
59493;BME280;45497;43.996;22.876;2022-07-26T00:26:38;100603.69;;;27.40;40.19
59493;BME280;45497;43.996;22.876;2022-07-26T00:29:04;100598.06;;;27.32;40.61
59493;BME280;45497;43.996;22.876;2022-07-26T00:31:30;100601.34;;;27.23;40.69
59493;BME280;45497;43.996;22.876;2022-07-26T00:33:56;100600.81;;;27.21;40.59
59493;BME280;45497;43.996;22.876;2022-07-26T00:36:21;100600.63;;;27.13;40.74
59493;BME280;45497;43.996;22.876;2022-07-26T00:38:47;100602.00;;;27.10;41.02
59493;BME280;45497;43.996;22.876;2022-07-26T00:41:12;100599.63;;;26.98;41.11
59493;BME280;45497;43.996;22.876;2022-07-26T00:43:52;100599.66;;;26.93;41.27
59493;BME280;45497;43.996;22.876;2022-07-26T00:46:18;100599.91;;;26.97;41.56
59493;BME280;45497;43.996;22.876;2022-07-26T00:49:20;100604.03;;;26.94;41.59
59493;BME280;45497;43.996;22.876;2022-07-26T00:51:45;100604.03;;;26.94;41.64
59493;BME280;45497;43.996;22.876;2022-07-26T00:54:11;100611.34;;;26.94;41.33
59493;BME280;45497;43.996;22.876;2022-07-26T00:56:36;100612.25;;;26.84;41.03
59493;BME280;45497;43.996;22.876;2022-07-26T00:59:03;100613.13;;;26.74;41.49
59493;BME280;45497;43.996;22.876;2022-07-26T01:01:28;100608.53;;;26.64;41.61
59493;BME280;45497;43.996;22.876;2022-07-26T01:03:54;100613.94;;;26.69;41.37
59493;BME280;45497;43.996;22.876;2022-07-26T01:08:25;100600.09;;;26.66;41.55
59493;BME280;45497;43.996;22.876;2022-07-26T01:10:51;100598.78;;;26.63;41.72
59493;BME280;45497;43.996;22.876;2022-07-26T01:13:20;100602.00;;;26.60;41.93
59493;BME280;45497;43.996;22.876;2022-07-26T01:15:46;100598.22;;;26.56;41.82
59493;BME280;45497;43.996;22.876;2022-07-26T01:18:14;100607.50;;;26.50;42.06
59493;BME280;45497;43.996;22.876;2022-07-26T01:20:40;100601.53;;;26.48;41.95
59493;BME280;45497;43.996;22.876;2022-07-26T01:23:07;100604.25;;;26.48;41.92
59493;BME280;45497;43.996;22.876;2022-07-26T01:25:34;100604.53;;;26.41;41.99
59493;BME280;45497;43.996;22.876;2022-07-26T01:28:01;100606.19;;;26.42;42.00
59493;BME280;45497;43.996;22.876;2022-07-26T01:30:26;100604.28;;;26.38;41.99
59493;BME280;45497;43.996;22.876;2022-07-26T01:32:52;100602.66;;;26.37;42.20
59493;BME280;45497;43.996;22.876;2022-07-26T01:35:17;100602.16;;;26.35;42.03
59493;BME280;45497;43.996;22.876;2022-07-26T01:37:43;100601.84;;;26.36;42.01
59493;BME280;45497;43.996;22.876;2022-07-26T01:40:17;100600.50;;;26.33;41.95
59493;BME280;45497;43.996;22.876;2022-07-26T01:42:43;100596.72;;;26.29;42.09
59493;BME280;45497;43.996;22.876;2022-07-26T01:47:07;100597.53;;;26.25;42.06
59493;BME280;45497;43.996;22.876;2022-07-26T01:49:33;100596.75;;;26.24;42.18
59493;BME280;45497;43.996;22.876;2022-07-26T01:51:58;100599.47;;;26.24;42.13
59493;BME280;45497;43.996;22.876;2022-07-26T01:56:18;100598.94;;;26.22;42.10
59493;BME280;45497;43.996;22.876;2022-07-26T01:59:26;100594.28;;;26.23;42.03
59493;BME280;45497;43.996;22.876;2022-07-26T02:01:52;100602.44;;;26.23;41.98
59493;BME280;45497;43.996;22.876;2022-07-26T02:04:17;100600.84;;;26.17;41.82
59493;BME280;45497;43.996;22.876;2022-07-26T02:07:01;100613.34;;;26.12;42.08
59493;BME280;45497;43.996;22.876;2022-07-26T02:09:26;100608.47;;;26.09;42.18
59493;BME280;45497;43.996;22.876;2022-07-26T02:11:52;100613.66;;;26.11;41.97
59493;BME280;45497;43.996;22.876;2022-07-26T02:14:17;100615.53;;;26.10;42.08
59493;BME280;45497;43.996;22.876;2022-07-26T02:16:43;100610.09;;;26.10;42.04
59493;BME280;45497;43.996;22.876;2022-07-26T02:19:08;100609.28;;;26.10;41.98
59493;BME280;45497;43.996;22.876;2022-07-26T02:21:34;100609.28;;;26.10;41.94
59493;BME280;45497;43.996;22.876;2022-07-26T02:23:59;100610.09;;;26.10;41.92
59493;BME280;45497;43.996;22.876;2022-07-26T02:27:06;100608.75;;;26.08;42.22
59493;BME280;45497;43.996;22.876;2022-07-26T02:29:32;100606.06;;;26.03;42.36
59493;BME280;45497;43.996;22.876;2022-07-26T02:31:58;100613.66;;;26.01;42.42
59493;BME280;45497;43.996;22.876;2022-07-26T02:34:24;100607.69;;;25.99;42.31
59493;BME280;45497;43.996;22.876;2022-07-26T02:36:50;100606.03;;;25.92;42.54
59493;BME280;45497;43.996;22.876;2022-07-26T02:39:15;100610.41;;;25.93;42.50
59493;BME280;45497;43.996;22.876;2022-07-26T02:41:41;100613.66;;;25.96;42.55
59493;BME280;45497;43.996;22.876;2022-07-26T02:44:07;100610.41;;;25.93;42.40
59493;BME280;45497;43.996;22.876;2022-07-26T02:46:33;100613.91;;;25.89;42.61
59493;BME280;45497;43.996;22.876;2022-07-26T02:50:36;100619.34;;;25.89;42.63
59493;BME280;45497;43.996;22.876;2022-07-26T02:53:03;100612.31;;;25.88;42.77
59493;BME280;45497;43.996;22.876;2022-07-26T02:55:28;100616.09;;;25.87;42.90
59493;BME280;45497;43.996;22.876;2022-07-26T02:57:54;100621.81;;;25.85;42.77
59493;BME280;45497;43.996;22.876;2022-07-26T03:00:23;100615.56;;;25.85;42.69
59493;BME280;45497;43.996;22.876;2022-07-26T03:02:49;100619.41;;;25.79;42.76
59493;BME280;45497;43.996;22.876;2022-07-26T03:05:15;100615.31;;;25.76;42.66
59493;BME280;45497;43.996;22.876;2022-07-26T03:07:41;100615.31;;;25.71;42.61
59493;BME280;45497;43.996;22.876;2022-07-26T03:10:07;100611.78;;;25.70;42.68
59493;BME280;45497;43.996;22.876;2022-07-26T03:12:33;100612.31;;;25.67;42.71
59493;BME280;45497;43.996;22.876;2022-07-26T03:14:58;100617.50;;;25.64;42.73
59493;BME280;45497;43.996;22.876;2022-07-26T03:17:24;100610.72;;;25.66;42.81
59493;BME280;45497;43.996;22.876;2022-07-26T03:19:49;100612.34;;;25.62;42.86
59493;BME280;45497;43.996;22.876;2022-07-26T03:22:15;100610.72;;;25.61;42.72
59493;BME280;45497;43.996;22.876;2022-07-26T03:24:40;100619.66;;;25.67;42.75
59493;BME280;45497;43.996;22.876;2022-07-26T03:27:06;100623.19;;;25.67;42.65
59493;BME280;45497;43.996;22.876;2022-07-26T03:29:31;100627.28;;;25.70;42.62
59493;BME280;45497;43.996;22.876;2022-07-26T03:31:57;100619.41;;;25.73;42.63
59493;BME280;45497;43.996;22.876;2022-07-26T03:34:22;100629.94;;;25.80;42.38
59493;BME280;45497;43.996;22.876;2022-07-26T03:36:48;100630.22;;;25.84;42.20
59493;BME280;45497;43.996;22.876;2022-07-26T03:39:13;100626.97;;;25.87;41.97
59493;BME280;45497;43.996;22.876;2022-07-26T03:41:39;100622.34;;;25.98;41.78
59493;BME280;45497;43.996;22.876;2022-07-26T03:44:06;100627.50;;;26.04;41.65
59493;BME280;45497;43.996;22.876;2022-07-26T03:46:31;100624.47;;;26.16;41.29
59493;BME280;45497;43.996;22.876;2022-07-26T03:48:57;100627.44;;;26.25;41.34
59493;BME280;45497;43.996;22.876;2022-07-26T03:51:22;100613.53;;;26.37;41.20
59493;BME280;45497;43.996;22.876;2022-07-26T03:53:48;100620.28;;;26.49;40.73
59493;BME280;45497;43.996;22.876;2022-07-26T03:56:14;100612.66;;;26.46;40.80
59493;BME280;45497;43.996;22.876;2022-07-26T03:59:08;100620.78;;;26.62;40.89
59493;BME280;45497;43.996;22.876;2022-07-26T04:01:35;100621.78;;;26.81;40.13
59493;BME280;45497;43.996;22.876;2022-07-26T04:04:01;100634.22;;;26.93;40.31
59493;BME280;45497;43.996;22.876;2022-07-26T04:06:27;100625.44;;;27.01;39.78
59493;BME280;45497;43.996;22.876;2022-07-26T04:08:53;100624.06;;;27.08;40.36
59493;BME280;45497;43.996;22.876;2022-07-26T04:11:19;100626.91;;;27.27;40.60
59493;BME280;45497;43.996;22.876;2022-07-26T04:13:45;100629.25;;;27.44;40.59
59493;BME280;45497;43.996;22.876;2022-07-26T04:16:10;100631.88;;;27.55;40.85
59493;BME280;45497;43.996;22.876;2022-07-26T04:18:36;100623.03;;;27.68;41.53
59493;BME280;45497;43.996;22.876;2022-07-26T04:21:02;100623.16;;;27.82;41.73
59493;BME280;45497;43.996;22.876;2022-07-26T04:23:27;100625.19;;;28.00;41.33
59493;BME280;45497;43.996;22.876;2022-07-26T04:25:53;100617.81;;;28.25;41.24
59493;BME280;45497;43.996;22.876;2022-07-26T04:28:19;100616.06;;;28.58;40.28
59493;BME280;45497;43.996;22.876;2022-07-26T04:30:44;100613.84;;;28.98;39.53
59493;BME280;45497;43.996;22.876;2022-07-26T04:33:10;100615.03;;;29.30;38.87
59493;BME280;45497;43.996;22.876;2022-07-26T04:35:35;100615.28;;;29.81;37.61
59493;BME280;45497;43.996;22.876;2022-07-26T04:38:01;100604.38;;;30.36;36.84
59493;BME280;45497;43.996;22.876;2022-07-26T04:40:28;100602.41;;;31.01;35.43
59493;BME280;45497;43.996;22.876;2022-07-26T04:42:58;100608.34;;;31.79;33.60
59493;BME280;45497;43.996;22.876;2022-07-26T04:45:23;100600.69;;;32.56;31.81
59493;BME280;45497;43.996;22.876;2022-07-26T04:47:49;100596.31;;;33.08;30.62
59493;BME280;45497;43.996;22.876;2022-07-26T04:50:16;100608.53;;;33.71;29.29
59493;BME280;45497;43.996;22.876;2022-07-26T04:52:42;100600.47;;;34.35;28.20
59493;BME280;45497;43.996;22.876;2022-07-26T04:55:08;100598.97;;;35.00;27.22
59493;BME280;45497;43.996;22.876;2022-07-26T04:57:34;100590.53;;;35.64;26.22
59493;BME280;45497;43.996;22.876;2022-07-26T05:00:00;100594.88;;;36.63;24.37
59493;BME280;45497;43.996;22.876;2022-07-26T05:02:26;100587.72;;;37.63;23.31
59493;BME280;45497;43.996;22.876;2022-07-26T05:04:52;100587.25;;;38.44;21.65
59493;BME280;45497;43.996;22.876;2022-07-26T05:07:17;100589.88;;;39.38;20.73
59493;BME280;45497;43.996;22.876;2022-07-26T05:09:43;100600.91;;;40.61;19.44
59493;BME280;45497;43.996;22.876;2022-07-26T05:12:10;100588.09;;;41.69;17.75
59493;BME280;45497;43.996;22.876;2022-07-26T05:14:35;100585.88;;;42.62;17.30
59493;BME280;45497;43.996;22.876;2022-07-26T05:17:02;100586.84;;;43.17;16.36
59493;BME280;45497;43.996;22.876;2022-07-26T05:19:28;100582.47;;;43.87;15.85
59493;BME280;45497;43.996;22.876;2022-07-26T05:21:53;100582.69;;;44.47;15.44
59493;BME280;45497;43.996;22.876;2022-07-26T05:24:19;100589.50;;;45.16;14.94
59493;BME280;45497;43.996;22.876;2022-07-26T05:26:44;100581.84;;;45.76;14.77
59493;BME280;45497;43.996;22.876;2022-07-26T05:29:10;100574.22;;;46.49;13.91
59493;BME280;45497;43.996;22.876;2022-07-26T05:31:35;100571.06;;;46.74;13.81
59493;BME280;45497;43.996;22.876;2022-07-26T05:34:01;100564.66;;;46.74;14.04
59493;BME280;45497;43.996;22.876;2022-07-26T05:36:28;100563.09;;;47.27;13.59
59493;BME280;45497;43.996;22.876;2022-07-26T05:38:53;100563.00;;;47.55;13.21
59493;BME280;45497;43.996;22.876;2022-07-26T05:41:19;100564.59;;;48.76;12.70
59493;BME280;45497;43.996;22.876;2022-07-26T05:43:45;100563.88;;;49.37;11.85
59493;BME280;45497;43.996;22.876;2022-07-26T05:46:11;100566.66;;;49.70;11.58
59493;BME280;45497;43.996;22.876;2022-07-26T05:48:37;100556.47;;;50.31;11.50
59493;BME280;45497;43.996;22.876;2022-07-26T05:51:03;100562.06;;;50.86;10.75
59493;BME280;45497;43.996;22.876;2022-07-26T05:53:28;100560.19;;;51.66;10.64
59493;BME280;45497;43.996;22.876;2022-07-26T05:55:54;100561.00;;;51.89;9.92
59493;BME280;45497;43.996;22.876;2022-07-26T05:58:19;100556.38;;;52.04;9.93
59493;BME280;45497;43.996;22.876;2022-07-26T06:00:45;100556.69;;;52.69;9.83
59493;BME280;45497;43.996;22.876;2022-07-26T06:03:13;100555.75;;;53.68;9.14
59493;BME280;45497;43.996;22.876;2022-07-26T06:05:53;100553.28;;;54.31;8.98
59493;BME280;45497;43.996;22.876;2022-07-26T06:08:20;100554.81;;;54.41;8.92
59493;BME280;45497;43.996;22.876;2022-07-26T06:10:47;100553.00;;;54.62;8.97
59493;BME280;45497;43.996;22.876;2022-07-26T06:13:13;100546.91;;;54.79;8.69
59493;BME280;45497;43.996;22.876;2022-07-26T06:15:38;100559.41;;;54.72;8.89
59493;BME280;45497;43.996;22.876;2022-07-26T06:18:05;100547.94;;;54.67;8.50
59493;BME280;45497;43.996;22.876;2022-07-26T06:20:31;100553.22;;;55.31;8.40
59493;BME280;45497;43.996;22.876;2022-07-26T06:22:57;100545.66;;;55.43;8.55
59493;BME280;45497;43.996;22.876;2022-07-26T06:25:26;100546.91;;;55.66;8.15
59493;BME280;45497;43.996;22.876;2022-07-26T06:27:52;100553.69;;;55.69;8.05
59493;BME280;45497;43.996;22.876;2022-07-26T06:30:17;100543.72;;;55.88;8.05
59493;BME280;45497;43.996;22.876;2022-07-26T06:32:43;100545.44;;;56.30;7.77
59493;BME280;45497;43.996;22.876;2022-07-26T06:35:12;100540.38;;;56.55;7.73
59493;BME280;45497;43.996;22.876;2022-07-26T06:37:39;100538.50;;;56.87;7.60
59493;BME280;45497;43.996;22.876;2022-07-26T06:40:06;100540.03;;;57.76;7.51
59493;BME280;45497;43.996;22.876;2022-07-26T06:42:32;100530.28;;;57.89;6.88
59493;BME280;45497;43.996;22.876;2022-07-26T06:44:58;100549.44;;;57.88;6.63
59493;BME280;45497;43.996;22.876;2022-07-26T06:47:24;100529.63;;;57.73;6.86
59493;BME280;45497;43.996;22.876;2022-07-26T06:49:50;100520.03;;;58.40;6.79
59493;BME280;45497;43.996;22.876;2022-07-26T06:52:15;100521.34;;;58.39;6.90
59493;BME280;45497;43.996;22.876;2022-07-26T06:54:41;100518.97;;;57.01;7.71
59493;BME280;45497;43.996;22.876;2022-07-26T06:57:06;100518.78;;;57.51;7.42
59493;BME280;45497;43.996;22.876;2022-07-26T06:59:32;100509.56;;;58.74;6.77
59493;BME280;45497;43.996;22.876;2022-07-26T07:01:57;100512.41;;;58.69;6.46
59493;BME280;45497;43.996;22.876;2022-07-26T07:04:23;100515.81;;;57.98;7.35
59493;BME280;45497;43.996;22.876;2022-07-26T07:06:48;100511.94;;;58.82;6.99
59493;BME280;45497;43.996;22.876;2022-07-26T07:09:14;100508.91;;;59.02;6.74
59493;BME280;45497;43.996;22.876;2022-07-26T07:11:39;100496.66;;;58.36;7.03
59493;BME280;45497;43.996;22.876;2022-07-26T07:14:05;100497.94;;;53.84;9.57
59493;BME280;45497;43.996;22.876;2022-07-26T07:16:30;100507.53;;;49.08;12.67
59493;BME280;45497;43.996;22.876;2022-07-26T07:18:56;100513.31;;;46.19;15.33
59493;BME280;45497;43.996;22.876;2022-07-26T07:21:21;100511.81;;;44.12;17.12
59493;BME280;45497;43.996;22.876;2022-07-26T07:23:47;100511.31;;;42.27;18.99
59493;BME280;45497;43.996;22.876;2022-07-26T07:26:12;100522.28;;;40.60;20.75
59493;BME280;45497;43.996;22.876;2022-07-26T07:28:38;100524.75;;;40.05;21.16
59493;BME280;45497;43.996;22.876;2022-07-26T07:31:04;100527.97;;;39.53;21.79
59493;BME280;45497;43.996;22.876;2022-07-26T07:33:30;100522.88;;;38.90;22.63
59493;BME280;45497;43.996;22.876;2022-07-26T07:35:55;100516.63;;;38.34;23.44
59493;BME280;45497;43.996;22.876;2022-07-26T07:38:21;100521.84;;;37.84;24.03
59493;BME280;45497;43.996;22.876;2022-07-26T07:40:46;100515.13;;;37.06;25.01
59493;BME280;45497;43.996;22.876;2022-07-26T07:43:12;100522.69;;;36.77;25.48
59493;BME280;45497;43.996;22.876;2022-07-26T07:45:37;100527.09;;;36.38;25.90
59493;BME280;45497;43.996;22.876;2022-07-26T07:48:03;100527.25;;;35.92;26.40
59493;BME280;45497;43.996;22.876;2022-07-26T07:50:29;100528.28;;;35.63;26.71
59493;BME280;45497;43.996;22.876;2022-07-26T07:52:54;100531.03;;;35.38;26.82
59493;BME280;45497;43.996;22.876;2022-07-26T07:55:20;100516.78;;;35.36;27.14
59493;BME280;45497;43.996;22.876;2022-07-26T07:57:45;100517.72;;;35.28;27.47
59493;BME280;45497;43.996;22.876;2022-07-26T08:00:11;100511.56;;;35.10;27.78
59493;BME280;45497;43.996;22.876;2022-07-26T08:02:39;100524.47;;;34.84;27.90
59493;BME280;45497;43.996;22.876;2022-07-26T08:05:05;100514.38;;;34.67;28.15
59493;BME280;45497;43.996;22.876;2022-07-26T08:07:33;100514.44;;;34.80;28.04
59493;BME280;45497;43.996;22.876;2022-07-26T08:09:58;100507.81;;;34.60;28.29
59493;BME280;45497;43.996;22.876;2022-07-26T08:12:24;100521.25;;;34.40;28.60
59493;BME280;45497;43.996;22.876;2022-07-26T08:14:49;100522.13;;;34.32;28.87
59493;BME280;45497;43.996;22.876;2022-07-26T08:17:15;100518.75;;;34.26;29.19
59493;BME280;45497;43.996;22.876;2022-07-26T08:19:40;100515.09;;;34.22;29.06
59493;BME280;45497;43.996;22.876;2022-07-26T08:22:07;100522.69;;;34.17;28.84
59493;BME280;45497;43.996;22.876;2022-07-26T08:24:33;100522.63;;;34.04;29.40
59493;BME280;45497;43.996;22.876;2022-07-26T08:26:58;100512.69;;;34.12;29.43
59493;BME280;45497;43.996;22.876;2022-07-26T08:29:24;100512.81;;;34.16;29.06
59493;BME280;45497;43.996;22.876;2022-07-26T08:31:50;100517.63;;;34.27;29.14
59493;BME280;45497;43.996;22.876;2022-07-26T08:34:17;100514.69;;;34.33;29.48
59493;BME280;45497;43.996;22.876;2022-07-26T08:36:43;100510.25;;;34.19;29.52
59493;BME280;45497;43.996;22.876;2022-07-26T08:39:10;100499.91;;;34.16;29.17
59493;BME280;45497;43.996;22.876;2022-07-26T08:41:35;100501.78;;;34.03;28.88
59493;BME280;45497;43.996;22.876;2022-07-26T08:44:08;100509.53;;;34.01;28.99
59493;BME280;45497;43.996;22.876;2022-07-26T08:46:39;100505.19;;;34.00;28.12
59493;BME280;45497;43.996;22.876;2022-07-26T08:49:09;100499.41;;;33.93;28.47
59493;BME280;45497;43.996;22.876;2022-07-26T08:51:39;100498.66;;;33.84;27.98
59493;BME280;45497;43.996;22.876;2022-07-26T08:54:08;100513.09;;;34.02;27.97
59493;BME280;45497;43.996;22.876;2022-07-26T08:56:35;100499.69;;;34.00;27.71
59493;BME280;45497;43.996;22.876;2022-07-26T08:59:03;100500.53;;;34.22;28.20
59493;BME280;45497;43.996;22.876;2022-07-26T09:01:29;100500.72;;;34.38;27.94
59493;BME280;45497;43.996;22.876;2022-07-26T09:03:54;100506.06;;;34.55;27.66
59493;BME280;45497;43.996;22.876;2022-07-26T09:06:22;100499.47;;;34.69;27.54
59493;BME280;45497;43.996;22.876;2022-07-26T09:09:37;100498.38;;;34.82;26.86
59493;BME280;45497;43.996;22.876;2022-07-26T09:12:17;100495.47;;;34.99;26.88
59493;BME280;45497;43.996;22.876;2022-07-26T09:14:44;100490.44;;;35.14;26.86
59493;BME280;45497;43.996;22.876;2022-07-26T09:17:15;100496.38;;;35.03;26.64
59493;BME280;45497;43.996;22.876;2022-07-26T09:19:41;100495.56;;;34.91;26.71
59493;BME280;45497;43.996;22.876;2022-07-26T09:22:10;100493.13;;;34.89;26.82
59493;BME280;45497;43.996;22.876;2022-07-26T09:24:41;100491.88;;;34.87;26.45
59493;BME280;45497;43.996;22.876;2022-07-26T09:27:10;100485.69;;;35.02;26.87
59493;BME280;45497;43.996;22.876;2022-07-26T09:29:50;100488.56;;;35.06;26.49
59493;BME280;45497;43.996;22.876;2022-07-26T09:32:20;100487.56;;;35.10;26.36
59493;BME280;45497;43.996;22.876;2022-07-26T09:34:51;100483.75;;;35.15;26.76
59493;BME280;45497;43.996;22.876;2022-07-26T09:37:17;100473.88;;;35.01;26.86
59493;BME280;45497;43.996;22.876;2022-07-26T09:39:57;100464.81;;;35.01;26.86
59493;BME280;45497;43.996;22.876;2022-07-26T09:42:24;100466.06;;;35.03;26.95
59493;BME280;45497;43.996;22.876;2022-07-26T09:44:50;100467.47;;;35.10;26.74
59493;BME280;45497;43.996;22.876;2022-07-26T09:47:17;100469.06;;;35.11;26.51
59493;BME280;45497;43.996;22.876;2022-07-26T09:49:43;100458.09;;;35.23;26.74
59493;BME280;45497;43.996;22.876;2022-07-26T09:52:19;100450.19;;;35.34;26.81
59493;BME280;45497;43.996;22.876;2022-07-26T09:54:47;100456.03;;;35.32;26.85
59493;BME280;45497;43.996;22.876;2022-07-26T09:57:18;100448.44;;;35.29;26.51
59493;BME280;45497;43.996;22.876;2022-07-26T09:59:44;100446.41;;;35.26;26.76
59493;BME280;45497;43.996;22.876;2022-07-26T10:02:11;100450.50;;;35.20;26.49
59493;BME280;45497;43.996;22.876;2022-07-26T10:04:39;100451.34;;;35.20;26.59
59493;BME280;45497;43.996;22.876;2022-07-26T10:07:05;100443.38;;;35.19;27.03
59493;BME280;45497;43.996;22.876;2022-07-26T10:09:35;100447.28;;;35.18;26.51
59493;BME280;45497;43.996;22.876;2022-07-26T10:12:07;100438.09;;;35.14;26.41
59493;BME280;45497;43.996;22.876;2022-07-26T10:14:41;100444.63;;;35.09;26.53
59493;BME280;45497;43.996;22.876;2022-07-26T10:17:40;100429.81;;;35.14;25.83
59493;BME280;45497;43.996;22.876;2022-07-26T10:20:08;100433.31;;;35.23;25.20
59493;BME280;45497;43.996;22.876;2022-07-26T10:22:45;100434.22;;;35.27;24.87
59493;BME280;45497;43.996;22.876;2022-07-26T10:27:50;100430.09;;;35.33;24.46
59493;BME280;45497;43.996;22.876;2022-07-26T10:35:37;100418.72;;;35.35;24.32
59493;BME280;45497;43.996;22.876;2022-07-26T10:38:07;100418.59;;;35.44;24.55
59493;BME280;45497;43.996;22.876;2022-07-26T10:40:33;100419.84;;;35.58;24.20
59493;BME280;45497;43.996;22.876;2022-07-26T10:45:34;100399.84;;;35.61;23.72
59493;BME280;45497;43.996;22.876;2022-07-26T10:48:18;100413.84;;;35.69;23.89
59493;BME280;45497;43.996;22.876;2022-07-26T10:50:47;100408.72;;;35.55;24.02
59493;BME280;45497;43.996;22.876;2022-07-26T10:53:23;100404.00;;;35.55;23.83
59493;BME280;45497;43.996;22.876;2022-07-26T10:55:59;100395.63;;;35.52;23.58
59493;BME280;45497;43.996;22.876;2022-07-26T10:58:26;100398.69;;;35.63;23.80
59493;BME280;45497;43.996;22.876;2022-07-26T11:01:01;100390.88;;;35.65;23.50
59493;BME280;45497;43.996;22.876;2022-07-26T11:03:49;100385.47;;;35.68;23.67
59493;BME280;45497;43.996;22.876;2022-07-26T11:06:17;100393.84;;;35.84;23.91
59493;BME280;45497;43.996;22.876;2022-07-26T11:08:45;100388.91;;;35.77;23.66
59493;BME280;45497;43.996;22.876;2022-07-26T11:11:11;100382.25;;;35.78;23.44
59493;BME280;45497;43.996;22.876;2022-07-26T11:13:37;100390.28;;;35.84;23.46
59493;BME280;45497;43.996;22.876;2022-07-26T11:16:06;100385.91;;;35.83;23.65
59493;BME280;45497;43.996;22.876;2022-07-26T11:18:34;100378.53;;;35.87;23.05
59493;BME280;45497;43.996;22.876;2022-07-26T11:21:14;100381.66;;;35.85;21.90
59493;BME280;45497;43.996;22.876;2022-07-26T11:23:41;100378.00;;;35.69;21.86
59493;BME280;45497;43.996;22.876;2022-07-26T11:26:15;100378.22;;;35.76;21.69
59493;BME280;45497;43.996;22.876;2022-07-26T11:28:47;100367.66;;;35.78;21.37
59493;BME280;45497;43.996;22.876;2022-07-26T11:31:14;100367.91;;;35.73;21.74
59493;BME280;45497;43.996;22.876;2022-07-26T11:33:42;100364.34;;;35.72;20.27
59493;BME280;45497;43.996;22.876;2022-07-26T11:36:09;100363.31;;;35.77;20.79
59493;BME280;45497;43.996;22.876;2022-07-26T11:38:52;100351.19;;;35.82;20.99
59493;BME280;45497;43.996;22.876;2022-07-26T11:43:44;100347.06;;;35.88;19.91
59493;BME280;45497;43.996;22.876;2022-07-26T11:46:10;100347.16;;;35.91;19.52
59493;BME280;45497;43.996;22.876;2022-07-26T11:48:37;100353.91;;;35.94;18.97
59493;BME280;45497;43.996;22.876;2022-07-26T11:53:38;100334.13;;;36.04;19.00
59493;BME280;45497;43.996;22.876;2022-07-26T11:56:11;100332.25;;;36.08;19.10
59493;BME280;45497;43.996;22.876;2022-07-26T11:58:42;100334.75;;;36.13;18.93
59493;BME280;45497;43.996;22.876;2022-07-26T12:01:09;100333.63;;;36.14;18.96
59493;BME280;45497;43.996;22.876;2022-07-26T12:03:39;100325.34;;;36.14;18.84
59493;BME280;45497;43.996;22.876;2022-07-26T12:06:07;100334.06;;;36.16;18.06
59493;BME280;45497;43.996;22.876;2022-07-26T12:08:53;100332.34;;;36.12;18.02
59493;BME280;45497;43.996;22.876;2022-07-26T12:11:20;100326.38;;;36.10;18.31
59493;BME280;45497;43.996;22.876;2022-07-26T12:13:56;100317.50;;;36.16;18.52
59493;BME280;45497;43.996;22.876;2022-07-26T12:19:00;100322.97;;;36.29;17.55
59493;BME280;45497;43.996;22.876;2022-07-26T12:22:06;100315.84;;;36.28;17.82
59493;BME280;45497;43.996;22.876;2022-07-26T12:27:09;100314.34;;;36.30;17.45
59493;BME280;45497;43.996;22.876;2022-07-26T12:29:36;100313.19;;;36.31;17.92
59493;BME280;45497;43.996;22.876;2022-07-26T12:32:03;100310.59;;;36.23;18.15
59493;BME280;45497;43.996;22.876;2022-07-26T12:34:29;100309.88;;;36.26;18.68
59493;BME280;45497;43.996;22.876;2022-07-26T12:37:04;100308.53;;;36.35;18.52
59493;BME280;45497;43.996;22.876;2022-07-26T12:39:30;100296.72;;;36.35;18.35
59493;BME280;45497;43.996;22.876;2022-07-26T12:41:55;100297.16;;;36.37;18.52
59493;BME280;45497;43.996;22.876;2022-07-26T12:44:21;100298.16;;;36.29;18.55
59493;BME280;45497;43.996;22.876;2022-07-26T12:46:47;100289.97;;;36.32;18.66
59493;BME280;45497;43.996;22.876;2022-07-26T12:49:13;100296.19;;;36.29;18.53
59493;BME280;45497;43.996;22.876;2022-07-26T12:51:38;100286.28;;;36.28;18.61
59493;BME280;45497;43.996;22.876;2022-07-26T12:54:04;100292.28;;;36.30;18.40
59493;BME280;45497;43.996;22.876;2022-07-26T12:56:31;100287.19;;;36.32;18.87
59493;BME280;45497;43.996;22.876;2022-07-26T12:58:57;100288.00;;;36.33;19.13
59493;BME280;45497;43.996;22.876;2022-07-26T13:01:26;100288.53;;;36.39;18.94
59493;BME280;45497;43.996;22.876;2022-07-26T13:03:53;100283.19;;;36.46;18.93
59493;BME280;45497;43.996;22.876;2022-07-26T13:06:19;100276.78;;;36.42;18.78
59493;BME280;45497;43.996;22.876;2022-07-26T13:08:45;100283.44;;;36.41;18.89
59493;BME280;45497;43.996;22.876;2022-07-26T13:11:10;100278.19;;;36.35;18.65
59493;BME280;45497;43.996;22.876;2022-07-26T13:13:36;100273.50;;;36.36;19.21
59493;BME280;45497;43.996;22.876;2022-07-26T13:16:01;100268.16;;;36.43;19.29